KBAF/BAF METAR and TAF weather

Enter ICAO airport designator
Station Type Date Time Source
KBAF METAR 2020/02/20 22:53 UTC NOAA

KBAF 202253Z 32011KT 10SM CLR M03/M14 A3038 RMK AO2 SLP297 T10331144


Station Type Date Time Source
KBAF Decoded METAR 2020/02/20 22:53 UTC NOAA

WESTFIELD BARNES MUNICIPAL, MA, United States (KBAF) 42-10N 072-43W 83M
Feb 20, 2020 - 05:53 PM EST / 2020.02.20 2253 UTC
Wind: from the NW (320 degrees) at 13 MPH (11 KT):0
Visibility: 10 mile(s):0
Sky conditions: clear
Temperature: 26.1 F (-3.3 C)
Windchill: 14 F (-10 C):1
Dew Point: 6.1 F (-14.4 C)
Relative Humidity: 41%
Pressure (altimeter): 30.38 in. Hg (1028 hPa)
ob: KBAF 202253Z 32011KT 10SM CLR M03/M14 A3038 RMK AO2 SLP297 T10331144
cycle: 23

Station Type Date Time Source
KBAF TAF 2020/02/20 21:10 UTC NOAA

TAF
AMD KBAF 202107Z 2021/2118 31012G20KT P6SM BKN060
FM202300 31007KT P6SM SCT060
FM210400 33005KT P6SM SKC
FM211700 00000KT P6SM SKC

Example: see airport list